sensor_id;sensor_type;location;lat;lon;timestamp;P1;durP1;ratioP1;P2;durP2;ratioP2
71955;SDS011;59829;50.562;6.258;2024-01-06T00:04:42;0.00;;;0.00;;
71955;SDS011;59829;50.562;6.258;2024-01-06T00:14:43;0.10;;;0.00;;
71955;SDS011;59829;50.562;6.258;2024-01-06T00:24:45;0.30;;;0.10;;
71955;SDS011;59829;50.562;6.258;2024-01-06T00:34:45;0.10;;;0.00;;
71955;SDS011;59829;50.562;6.258;2024-01-06T00:44:46;0.20;;;0.10;;
71955;SDS011;59829;50.562;6.258;2024-01-06T00:54:47;0.20;;;0.10;;
71955;SDS011;59829;50.562;6.258;2024-01-06T01:04:47;0.35;;;0.10;;
71955;SDS011;59829;50.562;6.258;2024-01-06T01:14:47;0.00;;;0.00;;
71955;SDS011;59829;50.562;6.258;2024-01-06T01:24:47;0.00;;;0.00;;
71955;SDS011;59829;50.562;6.258;2024-01-06T01:34:48;0.22;;;0.00;;
71955;SDS011;59829;50.562;6.258;2024-01-06T01:44:48;0.00;;;0.00;;
71955;SDS011;59829;50.562;6.258;2024-01-06T01:54:48;0.13;;;0.08;;
71955;SDS011;59829;50.562;6.258;2024-01-06T02:04:49;0.20;;;0.00;;
71955;SDS011;59829;50.562;6.258;2024-01-06T02:14:49;0.28;;;0.10;;
71955;SDS011;59829;50.562;6.258;2024-01-06T02:24:50;0.90;;;0.40;;
71955;SDS011;59829;50.562;6.258;2024-01-06T02:34:50;0.80;;;0.50;;
71955;SDS011;59829;50.562;6.258;2024-01-06T02:44:50;0.82;;;0.40;;
71955;SDS011;59829;50.562;6.258;2024-01-06T02:54:51;1.27;;;0.90;;
71955;SDS011;59829;50.562;6.258;2024-01-06T03:04:51;2.10;;;1.13;;
71955;SDS011;59829;50.562;6.258;2024-01-06T03:14:52;2.50;;;1.10;;
71955;SDS011;59829;50.562;6.258;2024-01-06T03:24:52;1.95;;;0.95;;
71955;SDS011;59829;50.562;6.258;2024-01-06T03:34:53;0.88;;;0.70;;
71955;SDS011;59829;50.562;6.258;2024-01-06T03:44:53;0.20;;;0.20;;
71955;SDS011;59829;50.562;6.258;2024-01-06T03:54:54;0.10;;;0.10;;
71955;SDS011;59829;50.562;6.258;2024-01-06T04:04:54;0.10;;;0.10;;
71955;SDS011;59829;50.562;6.258;2024-01-06T04:14:54;0.10;;;0.10;;
71955;SDS011;59829;50.562;6.258;2024-01-06T04:24:54;0.17;;;0.10;;
71955;SDS011;59829;50.562;6.258;2024-01-06T04:34:55;0.20;;;0.20;;
71955;SDS011;59829;50.562;6.258;2024-01-06T04:44:57;0.52;;;0.20;;
71955;SDS011;59829;50.562;6.258;2024-01-06T04:54:57;0.35;;;0.20;;
71955;SDS011;59829;50.562;6.258;2024-01-06T05:04:57;0.63;;;0.20;;
71955;SDS011;59829;50.562;6.258;2024-01-06T05:14:58;0.90;;;0.30;;
71955;SDS011;59829;50.562;6.258;2024-01-06T05:24:58;0.25;;;0.20;;
71955;SDS011;59829;50.562;6.258;2024-01-06T05:34:58;0.30;;;0.20;;
71955;SDS011;59829;50.562;6.258;2024-01-06T05:44:58;0.13;;;0.10;;
71955;SDS011;59829;50.562;6.258;2024-01-06T05:54:59;0.20;;;0.17;;
71955;SDS011;59829;50.562;6.258;2024-01-06T06:04:59;0.30;;;0.10;;
71955;SDS011;59829;50.562;6.258;2024-01-06T06:14:59;0.25;;;0.10;;
71955;SDS011;59829;50.562;6.258;2024-01-06T06:25:00;0.43;;;0.32;;
71955;SDS011;59829;50.562;6.258;2024-01-06T06:35:00;0.52;;;0.40;;
71955;SDS011;59829;50.562;6.258;2024-01-06T06:45:01;0.55;;;0.43;;
71955;SDS011;59829;50.562;6.258;2024-01-06T06:55:02;1.38;;;0.90;;
71955;SDS011;59829;50.562;6.258;2024-01-06T07:05:02;1.02;;;0.65;;
71955;SDS011;59829;50.562;6.258;2024-01-06T07:15:03;0.68;;;0.45;;
71955;SDS011;59829;50.562;6.258;2024-01-06T07:25:03;1.20;;;0.73;;
71955;SDS011;59829;50.562;6.258;2024-01-06T07:35:04;1.57;;;0.90;;
71955;SDS011;59829;50.562;6.258;2024-01-06T07:45:05;2.35;;;1.33;;
71955;SDS011;59829;50.562;6.258;2024-01-06T07:55:05;3.25;;;1.65;;
71955;SDS011;59829;50.562;6.258;2024-01-06T08:05:06;4.30;;;2.20;;
71955;SDS011;59829;50.562;6.258;2024-01-06T08:15:07;4.17;;;2.13;;
71955;SDS011;59829;50.562;6.258;2024-01-06T08:25:09;3.67;;;1.70;;
71955;SDS011;59829;50.562;6.258;2024-01-06T08:35:10;3.78;;;1.73;;
71955;SDS011;59829;50.562;6.258;2024-01-06T08:45:11;4.00;;;1.52;;
71955;SDS011;59829;50.562;6.258;2024-01-06T08:55:11;3.10;;;1.48;;
71955;SDS011;59829;50.562;6.258;2024-01-06T09:05:11;2.53;;;1.50;;
71955;SDS011;59829;50.562;6.258;2024-01-06T09:15:12;2.03;;;1.10;;
71955;SDS011;59829;50.562;6.258;2024-01-06T09:25:12;2.15;;;1.13;;
71955;SDS011;59829;50.562;6.258;2024-01-06T09:35:13;2.15;;;1.08;;
71955;SDS011;59829;50.562;6.258;2024-01-06T09:45:13;1.58;;;0.80;;
71955;SDS011;59829;50.562;6.258;2024-01-06T09:55:14;1.63;;;0.95;;
71955;SDS011;59829;50.562;6.258;2024-01-06T10:05:15;1.65;;;0.73;;
71955;SDS011;59829;50.562;6.258;2024-01-06T10:15:16;2.20;;;1.27;;
71955;SDS011;59829;50.562;6.258;2024-01-06T10:25:17;2.13;;;1.17;;
71955;SDS011;59829;50.562;6.258;2024-01-06T10:35:17;2.47;;;1.30;;
71955;SDS011;59829;50.562;6.258;2024-01-06T10:45:18;2.17;;;0.93;;
71955;SDS011;59829;50.562;6.258;2024-01-06T10:55:19;1.92;;;1.05;;
71955;SDS011;59829;50.562;6.258;2024-01-06T11:05:20;1.90;;;0.80;;
71955;SDS011;59829;50.562;6.258;2024-01-06T11:25:44;3.90;;;1.13;;
71955;SDS011;59829;50.562;6.258;2024-01-06T11:35:44;1.90;;;1.00;;
71955;SDS011;59829;50.562;6.258;2024-01-06T11:45:49;4.28;;;1.20;;
71955;SDS011;59829;50.562;6.258;2024-01-06T11:55:51;4.10;;;1.10;;
71955;SDS011;59829;50.562;6.258;2024-01-06T12:06:01;4.65;;;1.38;;
71955;SDS011;59829;50.562;6.258;2024-01-06T12:16:02;3.33;;;1.00;;
71955;SDS011;59829;50.562;6.258;2024-01-06T12:26:03;3.10;;;1.20;;
71955;SDS011;59829;50.562;6.258;2024-01-06T12:36:04;3.90;;;1.10;;
71955;SDS011;59829;50.562;6.258;2024-01-06T12:46:06;4.00;;;1.60;;
71955;SDS011;59829;50.562;6.258;2024-01-06T12:56:06;2.45;;;1.33;;
71955;SDS011;59829;50.562;6.258;2024-01-06T13:06:07;5.10;;;1.60;;
71955;SDS011;59829;50.562;6.258;2024-01-06T13:16:07;3.45;;;1.33;;
71955;SDS011;59829;50.562;6.258;2024-01-06T13:26:08;2.25;;;0.98;;
71955;SDS011;59829;50.562;6.258;2024-01-06T13:36:08;2.40;;;1.20;;
71955;SDS011;59829;50.562;6.258;2024-01-06T13:46:10;2.28;;;0.98;;
71955;SDS011;59829;50.562;6.258;2024-01-06T13:56:10;1.83;;;0.85;;
71955;SDS011;59829;50.562;6.258;2024-01-06T14:06:11;2.45;;;1.15;;
71955;SDS011;59829;50.562;6.258;2024-01-06T14:16:11;2.08;;;0.93;;
71955;SDS011;59829;50.562;6.258;2024-01-06T14:26:11;2.58;;;1.10;;
71955;SDS011;59829;50.562;6.258;2024-01-06T14:36:12;1.48;;;0.85;;
71955;SDS011;59829;50.562;6.258;2024-01-06T14:46:12;2.33;;;1.10;;
71955;SDS011;59829;50.562;6.258;2024-01-06T14:56:12;2.53;;;1.00;;
71955;SDS011;59829;50.562;6.258;2024-01-06T15:06:13;2.42;;;0.77;;
71955;SDS011;59829;50.562;6.258;2024-01-06T15:16:13;5.50;;;1.27;;
71955;SDS011;59829;50.562;6.258;2024-01-06T15:26:20;9.23;;;0.98;;
71955;SDS011;59829;50.562;6.258;2024-01-06T15:36:24;6.50;;;1.50;;
71955;SDS011;59829;50.562;6.258;2024-01-06T15:55:21;11.77;;;1.20;;
71955;SDS011;59829;50.562;6.258;2024-01-06T16:05:21;10.48;;;1.73;;
71955;SDS011;59829;50.562;6.258;2024-01-06T16:15:21;5.85;;;1.52;;
71955;SDS011;59829;50.562;6.258;2024-01-06T16:25:24;6.37;;;1.93;;
71955;SDS011;59829;50.562;6.258;2024-01-06T16:35:25;2.35;;;1.17;;
71955;SDS011;59829;50.562;6.258;2024-01-06T16:45:25;2.28;;;1.02;;
71955;SDS011;59829;50.562;6.258;2024-01-06T16:55:27;4.47;;;1.33;;
71955;SDS011;59829;50.562;6.258;2024-01-06T17:05:27;2.72;;;0.70;;
71955;SDS011;59829;50.562;6.258;2024-01-06T17:15:27;2.20;;;0.98;;
71955;SDS011;59829;50.562;6.258;2024-01-06T17:25:28;3.03;;;1.10;;
71955;SDS011;59829;50.562;6.258;2024-01-06T17:35:28;2.83;;;1.08;;
71955;SDS011;59829;50.562;6.258;2024-01-06T17:45:29;2.33;;;1.15;;
71955;SDS011;59829;50.562;6.258;2024-01-06T17:55:29;2.58;;;1.20;;
71955;SDS011;59829;50.562;6.258;2024-01-06T18:05:29;2.88;;;1.20;;
71955;SDS011;59829;50.562;6.258;2024-01-06T18:15:30;2.38;;;0.98;;
71955;SDS011;59829;50.562;6.258;2024-01-06T18:25:30;1.77;;;0.90;;
71955;SDS011;59829;50.562;6.258;2024-01-06T18:35:30;2.05;;;1.15;;
71955;SDS011;59829;50.562;6.258;2024-01-06T18:45:30;2.00;;;1.05;;
71955;SDS011;59829;50.562;6.258;2024-01-06T18:55:31;2.25;;;1.10;;
71955;SDS011;59829;50.562;6.258;2024-01-06T19:05:31;2.08;;;1.15;;
71955;SDS011;59829;50.562;6.258;2024-01-06T19:15:33;2.63;;;1.30;;
71955;SDS011;59829;50.562;6.258;2024-01-06T19:25:33;3.03;;;1.23;;
71955;SDS011;59829;50.562;6.258;2024-01-06T19:35:34;2.92;;;1.35;;
71955;SDS011;59829;50.562;6.258;2024-01-06T19:45:34;3.35;;;1.45;;
71955;SDS011;59829;50.562;6.258;2024-01-06T19:55:34;3.28;;;1.35;;
71955;SDS011;59829;50.562;6.258;2024-01-06T20:05:34;2.80;;;1.30;;
71955;SDS011;59829;50.562;6.258;2024-01-06T20:15:35;2.28;;;1.13;;
71955;SDS011;59829;50.562;6.258;2024-01-06T20:25:35;3.55;;;1.48;;
71955;SDS011;59829;50.562;6.258;2024-01-06T20:35:38;2.90;;;1.27;;
71955;SDS011;59829;50.562;6.258;2024-01-06T20:45:38;3.00;;;1.30;;
71955;SDS011;59829;50.562;6.258;2024-01-06T20:55:39;2.05;;;1.10;;
71955;SDS011;59829;50.562;6.258;2024-01-06T21:05:41;1.92;;;1.05;;
71955;SDS011;59829;50.562;6.258;2024-01-06T21:15:41;2.20;;;1.00;;
71955;SDS011;59829;50.562;6.258;2024-01-06T21:25:41;1.75;;;0.90;;
71955;SDS011;59829;50.562;6.258;2024-01-06T21:35:42;2.08;;;0.88;;
71955;SDS011;59829;50.562;6.258;2024-01-06T21:45:42;2.17;;;0.93;;
71955;SDS011;59829;50.562;6.258;2024-01-06T21:55:43;1.85;;;0.93;;
71955;SDS011;59829;50.562;6.258;2024-01-06T22:05:43;2.42;;;0.88;;
71955;SDS011;59829;50.562;6.258;2024-01-06T22:15:43;1.58;;;0.80;;
71955;SDS011;59829;50.562;6.258;2024-01-06T22:25:44;2.83;;;1.20;;
71955;SDS011;59829;50.562;6.258;2024-01-06T22:35:47;1.23;;;0.70;;
71955;SDS011;59829;50.562;6.258;2024-01-06T22:45:47;1.83;;;0.80;;
71955;SDS011;59829;50.562;6.258;2024-01-06T22:55:47;1.33;;;0.70;;
71955;SDS011;59829;50.562;6.258;2024-01-06T23:05:47;1.50;;;0.80;;
71955;SDS011;59829;50.562;6.258;2024-01-06T23:15:48;1.90;;;0.80;;
71955;SDS011;59829;50.562;6.258;2024-01-06T23:25:48;3.37;;;1.27;;
71955;SDS011;59829;50.562;6.258;2024-01-06T23:35:49;2.53;;;1.00;;
71955;SDS011;59829;50.562;6.258;2024-01-06T23:45:49;2.55;;;1.00;;
71955;SDS011;59829;50.562;6.258;2024-01-06T23:55:49;2.70;;;1.00;;
